Kezdőlap
METAR-TAF:

METAR-TAF

Repülőterek :

Clarion Municipal Airport

Clarion, Iowa, Amerikai Egyesült Államok

földrajzi szélesség: 42-45N, földrajzi hosszúság: 093-46W, magasság: 354 m

Jelenlegi meteorológiai megfigyelések

A jelentés 6 perccel ezelõtt készült, 13:15 UTC
Dél-délnyugati szél 4 kt
Hőmérséklet 25°C
Páratartalom 94%
Légköri nyomás 1018 hPa
Látótávolság: 9.7 km
Szakadozott felhőzet 5000 lábon
Párásság

METAR: KCAV 281315Z AUTO 21004KT 6SM BR BKN050 25/24 A3006 RMK A01

Idő: 08:21 (13:21 UTC)


TAF: hiányzik

Meteorológiai megfigyelések és előrejelzések több, mint 4000 repülőtéren (METAR és TAF jelentéseket).

A térképen piros és sárga pontok jelzik az elérhető meteorológiai állomásokat.

Mozgassa az egeret a pont fölött, hogy megjelenjen az állomás neve.

Azután kattintson az időjárási megfigyelések és előrejelzések megtekintéséhez.

A térkép megváltoztatása: kattintson a fekete keresztel jelölt zöld gombra ráközelítéshez, a vonallal jelölt zöld gombra távolításhoz, vagy a zöld nyilakra a szomszédos térképek eléréséhez.


METAR-TAF: